<?xml version="1.0" encoding="UTF-8" standalone="no" ?>
<gpx xmlns="http://www.topografix.com/GPX/1/1" xmlns:xsi="http://www.w3.org/2001/XMLSchema-instance" xsi:schemaLocation="http://www.topografix.com/GPX/1/1 http://www.topografix.com/GPX/1/1/gpx.xsd" version="1.1" creator="VisuGPX - https://www.visugpx.com">
  <metadata>
    <name>Lac de Lispach et Rouge Feigne</name>
  </metadata>
  <wpt lat="48.05279" lon="6.94765">
    <ele>909.5</ele>
    <name><![CDATA[Parking. Suivre le bord du]]></name>
  </wpt>
  <wpt lat="48.05071" lon="6.9417">
    <ele>911.6</ele>
    <name><![CDATA[Route de Lispach. Origine du]]></name>
  </wpt>
  <wpt lat="48.04934" lon="6.9395">
    <ele>906.1</ele>
    <name><![CDATA[Tournez à gauche dans un chemin forestier ]]></name>
  </wpt>
  <wpt lat="48.04036" lon="6.94906">
    <ele>1129.8</ele>
    <name><![CDATA[Arrivé en haut, emprunter un sentier à gauche]]></name>
  </wpt>
  <wpt lat="48.05287" lon="6.94774">
    <ele>909.9</ele>
    <name><![CDATA[Parking du départ]]></name>
  </wpt>
  <trk>
    <name><![CDATA[Lac de Lispach et Rouge Feigne]]></name>
    <extensions>
      <line xmlns="http://www.topografix.com/GPX/gpx_style/0/2">
        <color>0000FF</color>
        <width>4</width>
      </line>
    </extensions>
    <trkseg>
      <trkpt lat="48.05279" lon="6.94765">
        <ele>919</ele>
        <time>2021-11-02T18:01:55+01:00</time>
      </trkpt>
      <trkpt lat="48.05322" lon="6.94796">
        <ele>925</ele>
        <time>2021-11-02T18:02:00+01:00</time>
      </trkpt>
      <trkpt lat="48.05437" lon="6.94728">
        <ele>929</ele>
        <time>2021-11-02T18:02:05+01:00</time>
      </trkpt>
      <trkpt lat="48.05459" lon="6.94639">
        <ele>921</ele>
        <time>2021-11-02T18:02:10+01:00</time>
      </trkpt>
      <trkpt lat="48.05516" lon="6.94645">
        <ele>934</ele>
        <time>2021-11-02T18:02:15+01:00</time>
      </trkpt>
      <trkpt lat="48.0566" lon="6.94462">
        <ele>938</ele>
        <time>2021-11-02T18:02:20+01:00</time>
      </trkpt>
      <trkpt lat="48.05656" lon="6.943">
        <ele>939</ele>
        <time>2021-11-02T18:02:25+01:00</time>
      </trkpt>
      <trkpt lat="48.05599" lon="6.94305">
        <ele>927</ele>
        <time>2021-11-02T18:02:30+01:00</time>
      </trkpt>
      <trkpt lat="48.0555" lon="6.94256">
        <ele>931</ele>
        <time>2021-11-02T18:02:35+01:00</time>
      </trkpt>
      <trkpt lat="48.05485" lon="6.94239">
        <ele>926</ele>
        <time>2021-11-02T18:02:40+01:00</time>
      </trkpt>
      <trkpt lat="48.05423" lon="6.94264">
        <ele>919</ele>
        <time>2021-11-02T18:02:45+01:00</time>
      </trkpt>
      <trkpt lat="48.05355" lon="6.94227">
        <ele>914</ele>
        <time>2021-11-02T18:02:50+01:00</time>
      </trkpt>
      <trkpt lat="48.05301" lon="6.94201">
        <ele>912</ele>
        <time>2021-11-02T18:02:55+01:00</time>
      </trkpt>
      <trkpt lat="48.05236" lon="6.94154">
        <ele>913</ele>
        <time>2021-11-02T18:03:00+01:00</time>
      </trkpt>
      <trkpt lat="48.052" lon="6.94112">
        <ele>915</ele>
        <time>2021-11-02T18:03:05+01:00</time>
      </trkpt>
      <trkpt lat="48.05146" lon="6.9418">
        <ele>911</ele>
        <time>2021-11-02T18:03:10+01:00</time>
      </trkpt>
      <trkpt lat="48.05071" lon="6.9417">
        <ele>919</ele>
        <time>2021-11-02T18:03:15+01:00</time>
      </trkpt>
      <trkpt lat="48.05042" lon="6.9407">
        <ele>917</ele>
        <time>2021-11-02T18:03:20+01:00</time>
      </trkpt>
      <trkpt lat="48.04934" lon="6.9395">
        <ele>915</ele>
        <time>2021-11-02T18:03:25+01:00</time>
      </trkpt>
      <trkpt lat="48.05017" lon="6.94191">
        <ele>937</ele>
        <time>2021-11-02T18:03:30+01:00</time>
      </trkpt>
      <trkpt lat="48.05038" lon="6.94305">
        <ele>943</ele>
        <time>2021-11-02T18:03:35+01:00</time>
      </trkpt>
      <trkpt lat="48.05031" lon="6.9441">
        <ele>951</ele>
        <time>2021-11-02T18:03:40+01:00</time>
      </trkpt>
      <trkpt lat="48.05024" lon="6.94525">
        <ele>956</ele>
        <time>2021-11-02T18:03:45+01:00</time>
      </trkpt>
      <trkpt lat="48.05006" lon="6.9454">
        <ele>963</ele>
        <time>2021-11-02T18:03:50+01:00</time>
      </trkpt>
      <trkpt lat="48.04988" lon="6.94509">
        <ele>970</ele>
        <time>2021-11-02T18:03:55+01:00</time>
      </trkpt>
      <trkpt lat="48.04984" lon="6.94431">
        <ele>970</ele>
        <time>2021-11-02T18:04:00+01:00</time>
      </trkpt>
      <trkpt lat="48.04841" lon="6.94264">
        <ele>1014</ele>
        <time>2021-11-02T18:04:05+01:00</time>
      </trkpt>
      <trkpt lat="48.04679" lon="6.94112">
        <ele>1024</ele>
        <time>2021-11-02T18:04:10+01:00</time>
      </trkpt>
      <trkpt lat="48.04571" lon="6.9405">
        <ele>1034</ele>
        <time>2021-11-02T18:04:15+01:00</time>
      </trkpt>
      <trkpt lat="48.04467" lon="6.94034">
        <ele>1043</ele>
        <time>2021-11-02T18:04:20+01:00</time>
      </trkpt>
      <trkpt lat="48.04442" lon="6.9407">
        <ele>1049</ele>
        <time>2021-11-02T18:04:25+01:00</time>
      </trkpt>
      <trkpt lat="48.04442" lon="6.94138">
        <ele>1061</ele>
        <time>2021-11-02T18:04:30+01:00</time>
      </trkpt>
      <trkpt lat="48.04409" lon="6.94201">
        <ele>1067</ele>
        <time>2021-11-02T18:04:35+01:00</time>
      </trkpt>
      <trkpt lat="48.04291" lon="6.94478">
        <ele>1094</ele>
        <time>2021-11-02T18:04:40+01:00</time>
      </trkpt>
      <trkpt lat="48.04151" lon="6.94702">
        <ele>1117</ele>
        <time>2021-11-02T18:04:45+01:00</time>
      </trkpt>
      <trkpt lat="48.04036" lon="6.94906">
        <ele>1136</ele>
        <time>2021-11-02T18:04:50+01:00</time>
      </trkpt>
      <trkpt lat="48.03978" lon="6.95026">
        <ele>1144</ele>
        <time>2021-11-02T18:04:55+01:00</time>
      </trkpt>
      <trkpt lat="48.03967" lon="6.95088">
        <ele>1150</ele>
        <time>2021-11-02T18:05:00+01:00</time>
      </trkpt>
      <trkpt lat="48.0395" lon="6.95167">
        <ele>1154</ele>
        <time>2021-11-02T18:05:05+01:00</time>
      </trkpt>
      <trkpt lat="48.03924" lon="6.95428">
        <ele>1155</ele>
        <time>2021-11-02T18:05:10+01:00</time>
      </trkpt>
      <trkpt lat="48.0395" lon="6.95454">
        <ele>1158</ele>
        <time>2021-11-02T18:05:15+01:00</time>
      </trkpt>
      <trkpt lat="48.03932" lon="6.95527">
        <ele>1156</ele>
        <time>2021-11-02T18:05:20+01:00</time>
      </trkpt>
      <trkpt lat="48.03888" lon="6.956">
        <ele>1155</ele>
        <time>2021-11-02T18:05:25+01:00</time>
      </trkpt>
      <trkpt lat="48.03953" lon="6.95783">
        <ele>1159</ele>
        <time>2021-11-02T18:05:30+01:00</time>
      </trkpt>
      <trkpt lat="48.03989" lon="6.95913">
        <ele>1155</ele>
        <time>2021-11-02T18:05:35+01:00</time>
      </trkpt>
      <trkpt lat="48.04136" lon="6.96085">
        <ele>1140</ele>
        <time>2021-11-02T18:05:40+01:00</time>
      </trkpt>
      <trkpt lat="48.04251" lon="6.96247">
        <ele>1132</ele>
        <time>2021-11-02T18:05:45+01:00</time>
      </trkpt>
      <trkpt lat="48.04338" lon="6.96513">
        <ele>1130</ele>
        <time>2021-11-02T18:05:50+01:00</time>
      </trkpt>
      <trkpt lat="48.04442" lon="6.96513">
        <ele>1104</ele>
        <time>2021-11-02T18:05:55+01:00</time>
      </trkpt>
      <trkpt lat="48.04416" lon="6.96603">
        <ele>1112</ele>
        <time>2021-11-02T18:06:00+01:00</time>
      </trkpt>
      <trkpt lat="48.04409" lon="6.96676">
        <ele>1097</ele>
        <time>2021-11-02T18:06:05+01:00</time>
      </trkpt>
      <trkpt lat="48.0444" lon="6.96665">
        <ele>1093</ele>
        <time>2021-11-02T18:06:10+01:00</time>
      </trkpt>
      <trkpt lat="48.04431" lon="6.96689">
        <ele>1090</ele>
        <time>2021-11-02T18:06:15+01:00</time>
      </trkpt>
      <trkpt lat="48.04452" lon="6.96678">
        <ele>1087</ele>
        <time>2021-11-02T18:06:20+01:00</time>
      </trkpt>
      <trkpt lat="48.04438" lon="6.96712">
        <ele>1084</ele>
        <time>2021-11-02T18:06:25+01:00</time>
      </trkpt>
      <trkpt lat="48.04466" lon="6.96718">
        <ele>1077</ele>
        <time>2021-11-02T18:06:30+01:00</time>
      </trkpt>
      <trkpt lat="48.04479" lon="6.96611">
        <ele>1084</ele>
        <time>2021-11-02T18:06:35+01:00</time>
      </trkpt>
      <trkpt lat="48.04508" lon="6.96645">
        <ele>1071</ele>
        <time>2021-11-02T18:06:40+01:00</time>
      </trkpt>
      <trkpt lat="48.04499" lon="6.96428">
        <ele>1067</ele>
        <time>2021-11-02T18:06:45+01:00</time>
      </trkpt>
      <trkpt lat="48.04538" lon="6.96464">
        <ele>1053</ele>
        <time>2021-11-02T18:06:50+01:00</time>
      </trkpt>
      <trkpt lat="48.04546" lon="6.96441">
        <ele>1047</ele>
        <time>2021-11-02T18:06:55+01:00</time>
      </trkpt>
      <trkpt lat="48.04556" lon="6.9648">
        <ele>1046</ele>
        <time>2021-11-02T18:07:00+01:00</time>
      </trkpt>
      <trkpt lat="48.04564" lon="6.96462">
        <ele>1041</ele>
        <time>2021-11-02T18:07:05+01:00</time>
      </trkpt>
      <trkpt lat="48.04574" lon="6.96483">
        <ele>1037</ele>
        <time>2021-11-02T18:07:10+01:00</time>
      </trkpt>
      <trkpt lat="48.04555" lon="6.96381">
        <ele>1037</ele>
        <time>2021-11-02T18:07:15+01:00</time>
      </trkpt>
      <trkpt lat="48.04458" lon="6.96099">
        <ele>1019</ele>
        <time>2021-11-02T18:07:20+01:00</time>
      </trkpt>
      <trkpt lat="48.044" lon="6.95971">
        <ele>1017</ele>
        <time>2021-11-02T18:07:25+01:00</time>
      </trkpt>
      <trkpt lat="48.04339" lon="6.95922">
        <ele>1029</ele>
        <time>2021-11-02T18:07:30+01:00</time>
      </trkpt>
      <trkpt lat="48.04343" lon="6.95961">
        <ele>1043</ele>
        <time>2021-11-02T18:07:35+01:00</time>
      </trkpt>
      <trkpt lat="48.04281" lon="6.95914">
        <ele>1048</ele>
        <time>2021-11-02T18:07:40+01:00</time>
      </trkpt>
      <trkpt lat="48.04246" lon="6.95863">
        <ele>1043</ele>
        <time>2021-11-02T18:07:45+01:00</time>
      </trkpt>
      <trkpt lat="48.04211" lon="6.95809">
        <ele>1046</ele>
        <time>2021-11-02T18:07:50+01:00</time>
      </trkpt>
      <trkpt lat="48.04183" lon="6.95752">
        <ele>1053</ele>
        <time>2021-11-02T18:07:55+01:00</time>
      </trkpt>
      <trkpt lat="48.0415" lon="6.95721">
        <ele>1075</ele>
        <time>2021-11-02T18:08:00+01:00</time>
      </trkpt>
      <trkpt lat="48.04153" lon="6.95662">
        <ele>1075</ele>
        <time>2021-11-02T18:08:05+01:00</time>
      </trkpt>
      <trkpt lat="48.04199" lon="6.95621">
        <ele>1066</ele>
        <time>2021-11-02T18:08:10+01:00</time>
      </trkpt>
      <trkpt lat="48.0426" lon="6.95577">
        <ele>1062</ele>
        <time>2021-11-02T18:08:15+01:00</time>
      </trkpt>
      <trkpt lat="48.04314" lon="6.95589">
        <ele>1044</ele>
        <time>2021-11-02T18:08:20+01:00</time>
      </trkpt>
      <trkpt lat="48.04396" lon="6.95572">
        <ele>1036</ele>
        <time>2021-11-02T18:08:25+01:00</time>
      </trkpt>
      <trkpt lat="48.04471" lon="6.9556">
        <ele>1021</ele>
        <time>2021-11-02T18:08:30+01:00</time>
      </trkpt>
      <trkpt lat="48.04474" lon="6.95533">
        <ele>1025</ele>
        <time>2021-11-02T18:08:35+01:00</time>
      </trkpt>
      <trkpt lat="48.04475" lon="6.95505">
        <ele>1030</ele>
        <time>2021-11-02T18:08:40+01:00</time>
      </trkpt>
      <trkpt lat="48.04483" lon="6.95413">
        <ele>1033</ele>
        <time>2021-11-02T18:08:45+01:00</time>
      </trkpt>
      <trkpt lat="48.04521" lon="6.9524">
        <ele>1037</ele>
        <time>2021-11-02T18:08:50+01:00</time>
      </trkpt>
      <trkpt lat="48.04573" lon="6.95082">
        <ele>1015</ele>
        <time>2021-11-02T18:08:55+01:00</time>
      </trkpt>
      <trkpt lat="48.04602" lon="6.94972">
        <ele>1026</ele>
        <time>2021-11-02T18:09:00+01:00</time>
      </trkpt>
      <trkpt lat="48.04614" lon="6.94816">
        <ele>1066</ele>
        <time>2021-11-02T18:09:05+01:00</time>
      </trkpt>
      <trkpt lat="48.04647" lon="6.948">
        <ele>1051</ele>
        <time>2021-11-02T18:09:10+01:00</time>
      </trkpt>
      <trkpt lat="48.04656" lon="6.94834">
        <ele>1035</ele>
        <time>2021-11-02T18:09:15+01:00</time>
      </trkpt>
      <trkpt lat="48.04669" lon="6.94808">
        <ele>1036</ele>
        <time>2021-11-02T18:09:20+01:00</time>
      </trkpt>
      <trkpt lat="48.04676" lon="6.94834">
        <ele>1026</ele>
        <time>2021-11-02T18:09:25+01:00</time>
      </trkpt>
      <trkpt lat="48.04756" lon="6.94765">
        <ele>1019</ele>
        <time>2021-11-02T18:09:30+01:00</time>
      </trkpt>
      <trkpt lat="48.04836" lon="6.94727">
        <ele>1002</ele>
        <time>2021-11-02T18:09:35+01:00</time>
      </trkpt>
      <trkpt lat="48.04818" lon="6.94753">
        <ele>1002</ele>
        <time>2021-11-02T18:09:40+01:00</time>
      </trkpt>
      <trkpt lat="48.04905" lon="6.94714">
        <ele>987</ele>
        <time>2021-11-02T18:09:45+01:00</time>
      </trkpt>
      <trkpt lat="48.0498" lon="6.94641">
        <ele>971</ele>
        <time>2021-11-02T18:09:50+01:00</time>
      </trkpt>
      <trkpt lat="48.05018" lon="6.94562">
        <ele>959</ele>
        <time>2021-11-02T18:09:55+01:00</time>
      </trkpt>
      <trkpt lat="48.05026" lon="6.94534">
        <ele>955</ele>
        <time>2021-11-02T18:10:00+01:00</time>
      </trkpt>
      <trkpt lat="48.05035" lon="6.94354">
        <ele>947</ele>
        <time>2021-11-02T18:10:05+01:00</time>
      </trkpt>
      <trkpt lat="48.05017" lon="6.94205">
        <ele>939</ele>
        <time>2021-11-02T18:10:10+01:00</time>
      </trkpt>
      <trkpt lat="48.04965" lon="6.9406">
        <ele>927</ele>
        <time>2021-11-02T18:10:15+01:00</time>
      </trkpt>
      <trkpt lat="48.0493" lon="6.93943">
        <ele>914</ele>
        <time>2021-11-02T18:10:20+01:00</time>
      </trkpt>
      <trkpt lat="48.0504" lon="6.94076">
        <ele>917</ele>
        <time>2021-11-02T18:10:25+01:00</time>
      </trkpt>
      <trkpt lat="48.05113" lon="6.94267">
        <ele>918</ele>
        <time>2021-11-02T18:10:30+01:00</time>
      </trkpt>
      <trkpt lat="48.05201" lon="6.94437">
        <ele>912</ele>
        <time>2021-11-02T18:10:35+01:00</time>
      </trkpt>
      <trkpt lat="48.05244" lon="6.94576">
        <ele>911</ele>
        <time>2021-11-02T18:10:40+01:00</time>
      </trkpt>
      <trkpt lat="48.05289" lon="6.94672">
        <ele>914</ele>
        <time>2021-11-02T18:10:45+01:00</time>
      </trkpt>
      <trkpt lat="48.05287" lon="6.94774">
        <ele>920</ele>
        <time>2021-11-02T18:10:50+01:00</time>
      </trkpt>
    </trkseg>
  </trk>
</gpx>